Time;durP1;ratioP1;P1;durP2;ratioP2;P2;SDS_P1;SDS_P2;PMS_P1;PMS_P2;Temp;Humidity;BMP_temperature;BMP_pressure;BME280_temperature;BME280_humidity;BME280_pressure;Samples;Min_cycle;Max_cycle;Signal;HPM_P1;HPM_P2
2020/12/16 00:00:59;;;;;;;10.70;7.97;;;;;;;7.66;80.41;95604.50;5072658;28;20223;-79
2020/12/16 00:03:25;;;;;;;10.20;7.30;;;;;;;7.69;80.52;95603.38;5072720;28;20306;-79
2020/12/16 00:05:51;;;;;;;7.93;6.80;;;;;;;7.69;80.52;95605.94;5072451;28;20719;-78
2020/12/16 00:08:18;;;;;;;8.80;7.07;;;;;;;7.69;80.18;95611.06;5072883;28;20259;-78
2020/12/16 00:10:43;;;;;;;7.67;6.70;;;;;;;7.69;80.24;95616.19;5072505;28;20204;-79
2020/12/16 00:13:10;;;;;;;6.80;6.20;;;;;;;7.66;80.13;95617.31;5072758;28;20205;-79
2020/12/16 00:15:37;;;;;;;6.80;6.10;;;;;;;7.68;80.40;95617.16;5072113;28;20227;-76
2020/12/16 00:18:02;;;;;;;7.80;6.63;;;;;;;7.69;79.95;95614.44;5072574;28;20193;-77
2020/12/16 00:20:28;;;;;;;8.27;6.80;;;;;;;7.70;80.23;95622.94;5072495;28;20220;-76
2020/12/16 00:22:54;;;;;;;8.17;6.77;;;;;;;7.70;80.31;95628.06;5072193;28;20250;-76
2020/12/16 00:25:21;;;;;;;7.80;6.97;;;;;;;7.70;80.36;95626.25;5071560;28;20217;-78
2020/12/16 00:27:47;;;;;;;7.60;6.60;;;;;;;7.70;79.85;95636.50;5072690;28;20227;-79
2020/12/16 00:30:13;;;;;;;8.47;7.60;;;;;;;7.69;79.57;95647.75;5072241;28;20193;-78
2020/12/16 00:32:39;;;;;;;8.13;7.33;;;;;;;7.66;80.17;95645.50;5072558;28;20242;-78
2020/12/16 00:35:06;;;;;;;8.63;7.17;;;;;;;7.63;79.92;95645.81;5072062;28;20220;-76
2020/12/16 00:37:35;;;;;;;8.80;7.90;;;;;;;7.59;80.19;95647.06;5072033;28;20201;-79
2020/12/16 00:40:01;;;;;;;9.03;7.77;;;;;;;7.50;80.35;95645.47;5072349;28;20236;-76
2020/12/16 00:42:28;;;;;;;9.43;8.33;;;;;;;7.49;80.27;95651.53;5072277;28;20212;-76
2020/12/16 00:44:53;;;;;;;9.50;8.50;;;;;;;7.46;80.04;95642.41;5071592;28;20289;-79
2020/12/16 00:47:19;;;;;;;8.90;7.80;;;;;;;7.45;80.04;95643.34;5072668;28;20200;-79
2020/12/16 00:49:48;;;;;;;9.67;8.27;;;;;;;7.44;80.37;95646.06;5072069;28;20204;-77
2020/12/16 00:52:14;;;;;;;10.23;9.00;;;;;;;7.42;80.60;95638.53;5052310;28;20205;-77
2020/12/16 00:54:40;;;;;;;10.03;9.03;;;;;;;7.43;80.79;95627.34;5051989;28;20226;-79
2020/12/16 00:57:06;;;;;;;11.33;9.60;;;;;;;7.43;80.82;95621.41;5071168;28;20205;-76
2020/12/16 00:59:33;;;;;;;11.20;9.80;;;;;;;7.44;80.42;95626.38;5072371;28;20786;-76
2020/12/16 01:01:59;;;;;;;11.63;10.37;;;;;;;7.42;80.99;95619.81;5072038;28;20216;-76
2020/12/16 01:04:24;;;;;;;12.90;10.77;;;;;;;7.43;81.05;95624.78;5071627;28;20214;-79
2020/12/16 01:06:50;;;;;;;13.57;12.10;;;;;;;7.35;81.08;95621.38;5109839;22;20257;-73
2020/12/16 01:09:16;;;;;;;14.70;12.00;;;;;;;7.24;81.84;95625.84;5095867;28;20204;-73
2020/12/16 01:11:42;;;;;;;13.87;12.47;;;;;;;7.26;81.89;95612.88;5096168;28;20203;-75
2020/12/16 01:14:08;;;;;;;13.77;11.90;;;;;;;7.28;81.91;95622.00;5095881;28;20203;-74
2020/12/16 01:16:38;;;;;;;13.00;11.67;;;;;;;7.20;82.26;95628.84;5091674;28;20258;-73
2020/12/16 01:19:05;;;;;;;13.90;12.00;;;;;;;7.21;82.25;95626.13;5096125;28;20204;-73
2020/12/16 01:21:34;;;;;;;15.87;11.47;;;;;;;7.22;82.30;95625.19;5082091;28;20196;-73
2020/12/16 01:24:00;;;;;;;12.57;11.17;;;;;;;7.25;82.23;95614.63;5091261;28;20620;-73
2020/12/16 01:26:26;;;;;;;14.40;11.13;;;;;;;7.30;81.98;95615.94;5083568;28;20290;-75
2020/12/16 01:28:52;;;;;;;14.73;12.23;;;;;;;7.32;81.54;95617.34;5075484;28;20648;-73
2020/12/16 01:31:18;;;;;;;13.60;11.23;;;;;;;7.33;81.82;95620.72;5086740;28;20196;-74
2020/12/16 01:33:44;;;;;;;12.27;10.97;;;;;;;7.33;81.69;95625.84;5088861;28;20192;-73
2020/12/16 01:36:11;;;;;;;13.13;11.00;;;;;;;7.32;81.79;95622.47;5075321;28;20220;-73
2020/12/16 01:38:37;;;;;;;12.80;11.50;;;;;;;7.16;82.38;95625.00;5093895;28;20200;-73
2020/12/16 01:41:04;;;;;;;13.10;11.70;;;;;;;7.19;82.12;95615.25;5086386;28;20258;-75
2020/12/16 01:43:35;;;;;;;12.33;11.03;;;;;;;7.21;81.65;95621.03;5075238;28;20224;-73
2020/12/16 01:46:01;;;;;;;12.63;11.27;;;;;;;7.21;81.56;95626.13;5082794;28;20240;-73
2020/12/16 01:48:27;;;;;;;12.70;10.67;;;;;;;7.21;81.45;95628.69;5095440;28;20211;-73
2020/12/16 01:50:54;;;;;;;11.07;9.80;;;;;;;7.17;81.64;95629.97;5087437;28;20205;-73
2020/12/16 01:53:20;;;;;;;13.00;10.50;;;;;;;7.14;81.65;95635.38;5075387;28;20205;-74
2020/12/16 01:55:47;;;;;;;12.43;10.47;;;;;;;7.11;81.50;95628.03;5095248;28;20291;-73
2020/12/16 01:58:16;;;;;;;11.93;10.73;;;;;;;7.10;81.61;95626.44;5090377;28;20200;-73
2020/12/16 02:00:44;;;;;;;11.30;9.83;;;;;;;7.12;81.45;95621.94;5088565;28;20193;-72
2020/12/16 02:03:18;;;;;;;10.47;9.37;;;;;;;7.12;81.67;95618.59;5077686;28;20216;-73
2020/12/16 02:05:48;;;;;;;9.83;8.83;;;;;;;7.12;81.42;95621.94;5094450;28;20231;-73
2020/12/16 02:08:16;;;;;;;10.57;8.60;;;;;;;7.12;81.20;95621.16;5091639;28;20197;-74
2020/12/16 02:10:42;;;;;;;10.37;8.90;;;;;;;7.10;81.38;95611.06;5080178;28;20585;-75
2020/12/16 02:13:08;;;;;;;10.37;9.13;;;;;;;7.07;81.42;95615.69;5085037;28;20200;-74
2020/12/16 02:15:34;;;;;;;9.60;8.60;;;;;;;7.04;81.40;95619.34;5074502;28;20223;-76
2020/12/16 02:18:00;;;;;;;9.70;8.70;;;;;;;7.03;81.31;95622.06;5080821;28;20249;-75
2020/12/16 02:20:26;;;;;;;9.50;8.50;;;;;;;7.02;81.15;95623.81;5091940;28;20196;-75
2020/12/16 02:22:53;;;;;;;9.27;8.37;;;;;;;7.03;81.00;95620.31;5074453;28;20711;-75
2020/12/16 02:25:20;;;;;;;9.63;7.87;;;;;;;7.03;80.86;95634.88;5085132;28;20192;-76
2020/12/16 02:27:46;;;;;;;8.93;8.10;;;;;;;7.00;81.02;95630.84;5091460;28;20249;-74
2020/12/16 02:30:12;;;;;;;9.00;8.10;;;;;;;6.95;81.10;95627.94;5093449;28;20208;-74
2020/12/16 02:32:39;;;;;;;9.23;8.33;;;;;;;6.91;81.34;95627.47;5074182;28;20243;-74
2020/12/16 02:35:06;;;;;;;8.97;8.07;;;;;;;6.92;81.30;95623.16;5074166;28;20564;-74
2020/12/16 02:37:32;;;;;;;9.40;8.43;;;;;;;6.91;80.98;95629.22;5093599;28;20193;-74
2020/12/16 02:39:58;;;;;;;9.47;8.20;;;;;;;6.90;80.96;95632.72;5092562;28;20218;-74
2020/12/16 02:42:26;;;;;;;9.10;8.20;;;;;;;6.89;81.09;95631.13;5075262;28;20290;-74
2020/12/16 02:44:52;;;;;;;10.40;8.43;;;;;;;6.88;81.05;95625.22;5082518;28;20193;-74
2020/12/16 02:47:19;;;;;;;9.43;8.43;;;;;;;6.86;80.90;95622.00;5094102;28;20601;-74
2020/12/16 02:49:54;;;;;;;9.50;8.53;;;;;;;6.86;80.84;95629.66;5086721;28;20258;-74
2020/12/16 02:52:20;;;;;;;9.53;8.53;;;;;;;6.85;80.63;95635.75;5091849;28;20192;-74
2020/12/16 02:54:46;;;;;;;10.77;9.23;;;;;;;6.83;80.34;95629.97;5092351;28;20200;-75
2020/12/16 02:57:12;;;;;;;12.53;10.57;;;;;;;6.81;80.14;95625.97;5093709;28;20226;-74
2020/12/16 02:59:39;;;;;;;10.17;9.17;;;;;;;6.79;80.60;95613.31;5086443;28;20246;-74
2020/12/16 03:02:05;;;;;;;11.23;10.07;;;;;;;6.77;80.26;95625.44;5089507;28;20223;-73
2020/12/16 03:04:31;;;;;;;12.17;10.43;;;;;;;6.72;80.40;95617.44;5092182;28;20196;-74
2020/12/16 03:06:57;;;;;;;10.93;9.90;;;;;;;6.75;80.26;95629.09;5093565;28;20622;-74
2020/12/16 03:09:25;;;;;;;11.57;10.17;;;;;;;6.68;80.32;95620.47;5089834;28;20197;-74
2020/12/16 03:11:52;;;;;;;11.40;10.20;;;;;;;6.66;80.36;95614.69;5087061;28;20196;-74
2020/12/16 03:14:18;;;;;;;11.90;10.33;;;;;;;6.67;80.06;95609.41;5090784;28;20620;-73
2020/12/16 03:16:45;;;;;;;12.90;10.13;;;;;;;6.62;79.95;95611.63;5073574;28;20221;-74
2020/12/16 03:19:11;;;;;;;11.17;10.07;;;;;;;6.66;79.96;95612.94;5084158;28;20198;-73
2020/12/16 03:21:37;;;;;;;11.47;10.27;;;;;;;6.62;80.11;95609.06;5081660;28;20201;-72
2020/12/16 03:24:03;;;;;;;11.87;10.57;;;;;;;6.59;79.74;95607.59;5082063;28;20253;-73
2020/12/16 03:26:29;;;;;;;11.90;10.70;;;;;;;6.53;80.28;95600.56;5093553;28;20220;-72
2020/12/16 03:28:55;;;;;;;12.13;10.70;;;;;;;6.50;80.55;95603.41;5085361;28;20220;-73
2020/12/16 03:31:21;;;;;;;11.90;10.73;;;;;;;6.53;80.29;95612.53;5082466;28;20283;-73
2020/12/16 03:33:48;;;;;;;12.13;10.83;;;;;;;6.48;80.36;95607.06;5086988;28;20589;-73
2020/12/16 03:36:18;;;;;;;12.43;11.13;;;;;;;6.43;80.49;95612.63;5073241;28;20224;-73
2020/12/16 03:38:44;;;;;;;14.23;12.73;;;;;;;6.42;80.82;95621.25;5077135;28;20215;-72
2020/12/16 03:41:11;;;;;;;14.17;12.13;;;;;;;6.37;80.90;95614.97;5085530;28;20196;-73
2020/12/16 03:43:36;;;;;;;14.07;11.80;;;;;;;6.39;80.79;95629.22;5074933;28;20209;-73
2020/12/16 03:46:08;;;;;;;13.43;11.50;;;;;;;6.41;80.38;95626.50;5092905;28;20685;-73
2020/12/16 03:48:34;;;;;;;13.37;11.90;;;;;;;6.41;80.28;95632.44;5091400;28;20200;-73
2020/12/16 03:51:03;;;;;;;14.63;12.00;;;;;;;6.40;80.23;95635.13;5072777;28;20873;-73
2020/12/16 03:53:29;;;;;;;14.30;12.40;;;;;;;6.40;80.30;95633.38;5072492;28;20203;-74
2020/12/16 03:55:54;;;;;;;14.83;12.37;;;;;;;6.39;80.13;95630.97;5072471;28;20221;-73
2020/12/16 03:58:20;;;;;;;14.97;12.43;;;;;;;6.35;80.85;95645.03;5080721;28;20199;-72
2020/12/16 04:00:46;;;;;;;15.37;12.70;;;;;;;6.34;80.73;95645.97;5088947;28;20197;-73
2020/12/16 04:03:12;;;;;;;16.03;13.10;;;;;;;6.31;80.52;95646.28;5072446;28;20220;-73
2020/12/16 04:05:38;;;;;;;16.27;13.73;;;;;;;6.29;80.49;95654.09;5074632;28;20327;-73
2020/12/16 04:08:05;;;;;;;15.60;13.30;;;;;;;6.30;80.74;95660.81;5092867;28;20200;-73
2020/12/16 04:10:31;;;;;;;15.70;13.13;;;;;;;6.26;80.46;95662.03;5075801;28;20204;-75
2020/12/16 04:12:57;;;;;;;14.60;12.93;;;;;;;6.26;80.95;95664.59;5092766;28;20207;-75
2020/12/16 04:15:22;;;;;;;15.80;13.27;;;;;;;6.28;80.95;95662.72;5076095;28;20269;-72
2020/12/16 04:17:48;;;;;;;15.10;12.63;;;;;;;6.30;80.72;95662.56;5072190;28;20212;-73
2020/12/16 04:20:14;;;;;;;17.07;13.63;;;;;;;6.26;80.19;95658.69;5086263;28;20613;-73
2020/12/16 04:22:40;;;;;;;15.17;13.10;;;;;;;6.28;80.27;95649.91;5077594;28;20708;-73
2020/12/16 04:25:07;;;;;;;16.47;12.77;;;;;;;6.30;80.56;95660.81;5090641;28;20199;-73
2020/12/16 04:27:33;;;;;;;16.83;14.07;;;;;;;6.30;80.44;95658.25;5072322;28;20687;-73
2020/12/16 04:29:59;;;;;;;19.37;15.60;;;;;;;6.31;80.32;95662.41;5072423;28;20200;-73
2020/12/16 04:32:27;;;;;;;19.67;15.03;;;;;;;6.26;80.08;95666.34;5091535;28;20191;-73
2020/12/16 04:34:53;;;;;;;17.90;14.37;;;;;;;6.20;80.38;95672.84;5083885;28;20221;-73
2020/12/16 04:37:19;;;;;;;19.20;14.83;;;;;;;6.16;80.59;95672.34;5071955;28;20220;-71
2020/12/16 04:39:45;;;;;;;17.97;14.57;;;;;;;6.13;80.89;95675.22;5085652;28;20645;-73
2020/12/16 04:42:12;;;;;;;16.90;14.03;;;;;;;5.95;81.98;95673.59;5074119;28;20208;-73
2020/12/16 04:44:38;;;;;;;16.87;14.23;;;;;;;5.91;82.01;95672.28;5083894;28;20192;-73
2020/12/16 04:47:04;;;;;;;19.20;14.20;;;;;;;5.92;82.06;95682.38;5080984;28;20217;-73
2020/12/16 04:49:30;;;;;;;17.77;14.80;;;;;;;5.95;82.01;95671.06;5071917;28;20243;-72
2020/12/16 04:51:57;;;;;;;16.90;14.30;;;;;;;6.02;81.39;95679.72;5086819;28;20203;-71
2020/12/16 04:54:23;;;;;;;15.90;13.43;;;;;;;5.95;81.80;95682.09;5091750;28;20219;-73
2020/12/16 04:56:50;;;;;;;16.70;13.33;;;;;;;5.94;81.78;95677.91;5079291;28;20216;-74
2020/12/16 04:59:17;;;;;;;15.60;13.33;;;;;;;6.00;81.90;95686.72;5072256;28;20207;-72
2020/12/16 05:01:43;;;;;;;14.17;12.67;;;;;;;6.04;81.36;95682.94;5072082;28;20213;-73
2020/12/16 05:04:10;;;;;;;15.07;12.37;;;;;;;6.05;81.13;95690.47;5080794;28;20216;-73
2020/12/16 05:06:37;;;;;;;15.23;12.63;;;;;;;6.09;81.26;95688.44;5091708;28;20232;-73
2020/12/16 05:09:08;;;;;;;15.40;12.70;;;;;;;6.03;81.32;95689.00;5080423;28;20192;-73
2020/12/16 05:11:43;;;;;;;13.60;12.13;;;;;;;6.06;80.74;95693.81;5092125;28;20204;-72
2020/12/16 05:14:15;;;;;;;13.13;11.23;;;;;;;6.06;81.07;95689.53;5092036;28;20235;-72
2020/12/16 05:16:59;;;;;;;14.13;11.83;;;;;;;6.04;80.92;95680.38;5078780;28;20244;-72
2020/12/16 05:19:30;;;;;;;13.60;11.73;;;;;;;6.04;80.67;95685.50;5077108;28;20192;-73
2020/12/16 05:22:10;;;;;;;12.33;10.80;;;;;;;6.05;80.71;95685.34;5073088;28;20193;-73
2020/12/16 05:24:36;;;;;;;13.30;11.03;;;;;;;6.05;80.78;95684.53;5082240;28;20196;-73
2020/12/16 05:27:03;;;;;;;12.57;11.27;;;;;;;6.10;80.59;95684.91;5084896;28;20637;-73
2020/12/16 05:29:29;;;;;;;11.43;10.20;;;;;;;6.07;80.19;95691.13;5071533;28;20236;-73
2020/12/16 05:31:55;;;;;;;12.17;10.60;;;;;;;5.97;80.29;95699.78;5088301;28;20241;-74
2020/12/16 05:34:28;;;;;;;13.97;11.63;;;;;;;5.73;80.86;95702.91;5074104;28;20185;-73
2020/12/16 05:36:54;;;;;;;13.90;11.40;;;;;;;5.58;82.26;95712.00;5074402;28;20212;-72
2020/12/16 05:39:20;;;;;;;12.40;11.17;;;;;;;5.62;82.16;95706.44;5068142;28;20676;-73
2020/12/16 05:41:55;;;;;;;11.83;10.63;;;;;;;5.68;82.08;95703.31;5076905;28;20201;-74
2020/12/16 05:44:24;;;;;;;12.67;10.53;;;;;;;5.75;81.48;95706.13;5064379;28;20228;-73
2020/12/16 05:46:51;;;;;;;10.90;9.73;;;;;;;5.81;81.22;95713.19;5070351;28;20217;-73
2020/12/16 05:49:24;;;;;;;11.07;9.87;;;;;;;5.85;80.58;95709.41;5067121;28;20238;-73
2020/12/16 05:51:57;;;;;;;11.83;9.90;;;;;;;5.81;80.76;95706.31;5062566;28;20203;-73
2020/12/16 05:54:23;;;;;;;11.77;9.80;;;;;;;5.69;81.11;95707.47;5073957;28;20205;-73
2020/12/16 05:57:09;;;;;;;10.60;9.50;;;;;;;5.76;81.57;95710.28;5090235;28;20595;-73
2020/12/16 05:59:35;;;;;;;10.20;9.20;;;;;;;5.81;81.31;95700.41;5073992;28;20249;-72
2020/12/16 06:02:04;;;;;;;11.33;9.90;;;;;;;5.86;80.55;95699.03;5091321;28;20282;-73
2020/12/16 06:04:33;;;;;;;11.50;9.40;;;;;;;5.89;80.55;95700.53;5077515;28;20208;-75
2020/12/16 06:06:59;;;;;;;11.33;10.13;;;;;;;5.91;80.07;95697.84;5089516;28;20227;-73
2020/12/16 06:09:25;;;;;;;11.63;10.43;;;;;;;5.90;79.77;95704.69;5078757;28;20193;-74
2020/12/16 06:11:54;;;;;;;11.60;10.17;;;;;;;5.90;79.96;95704.69;5084959;28;20196;-73
2020/12/16 06:14:21;;;;;;;11.97;10.10;;;;;;;5.83;79.65;95704.44;5083829;28;20627;-74
2020/12/16 06:16:48;;;;;;;10.97;9.87;;;;;;;5.70;80.52;95703.19;5090554;28;20217;-74
2020/12/16 06:19:24;;;;;;;10.70;9.60;;;;;;;5.61;80.92;95704.81;5080982;28;20188;-74
2020/12/16 06:21:56;;;;;;;10.33;9.23;;;;;;;5.52;81.62;95711.63;5081164;28;20669;-74
2020/12/16 06:24:28;;;;;;;11.00;9.77;;;;;;;5.40;82.55;95714.47;5082790;28;20271;-75
2020/12/16 06:27:02;;;;;;;12.53;10.43;;;;;;;5.48;82.37;95714.59;5066743;28;20761;-74
2020/12/16 06:29:30;;;;;;;11.47;10.27;;;;;;;5.42;84.13;95715.13;5083040;28;20187;-74
2020/12/16 06:32:01;;;;;;;11.97;10.33;;;;;;;5.55;82.93;95725.84;5083918;28;20204;-75
2020/12/16 06:34:29;;;;;;;10.70;9.50;;;;;;;5.64;82.01;95729.28;5068443;28;20275;-75
2020/12/16 06:36:56;;;;;;;12.27;10.93;;;;;;;5.53;82.05;95733.66;5054384;28;20228;-74
2020/12/16 06:39:23;;;;;;;11.67;10.47;;;;;;;5.62;82.41;95723.50;5065401;28;20197;-75
2020/12/16 06:41:53;;;;;;;10.73;9.63;;;;;;;5.70;82.09;95726.16;5074052;28;20227;-74
2020/12/16 06:44:19;;;;;;;34.23;26.27;;;;;;;5.78;81.78;95721.13;5073801;28;20274;-75
2020/12/16 06:46:47;;;;;;;36.33;29.53;;;;;;;5.87;81.52;95730.50;5073629;28;20224;-75
2020/12/16 06:49:43;;;;;;;15.97;13.87;;;;;;;5.85;82.76;95730.66;5074069;28;20205;-74
2020/12/16 06:52:13;;;;;;;12.80;11.07;;;;;;;5.91;81.84;95729.31;5071997;28;20652;-75
2020/12/16 06:54:44;;;;;;;11.40;9.90;;;;;;;5.84;81.75;95723.94;5073560;28;20193;-74
2020/12/16 06:57:16;;;;;;;12.13;10.07;;;;;;;5.91;81.53;95720.84;5073675;28;20216;-75
2020/12/16 06:59:44;;;;;;;11.30;10.10;;;;;;;5.88;81.95;95739.78;5073881;28;20219;-75
2020/12/16 07:02:11;;;;;;;11.80;10.40;;;;;;;5.91;81.82;95736.16;5073677;28;20219;-73
2020/12/16 07:04:38;;;;;;;11.07;9.97;;;;;;;5.93;81.91;95724.84;5072584;28;20224;-75
2020/12/16 07:07:04;;;;;;;12.90;9.90;;;;;;;5.97;81.67;95731.25;5117551;22;20223;-79
2020/12/16 07:09:33;;;;;;;20.17;16.23;;;;;;;5.95;81.05;95740.84;5125084;27;20283;-76
2020/12/16 07:11:59;;;;;;;62.63;45.83;;;;;;;6.02;82.04;95738.50;5124019;27;20195;-79
2020/12/16 07:14:32;;;;;;;24.73;20.73;;;;;;;6.07;80.26;95733.78;5128757;27;20199;-76
2020/12/16 07:17:05;;;;;;;15.17;12.90;;;;;;;6.07;80.06;95736.31;5104153;27;20222;-78
2020/12/16 07:19:31;;;;;;;11.80;10.40;;;;;;;6.08;80.45;95750.72;5128706;27;20203;-78
2020/12/16 07:21:57;;;;;;;9.97;8.97;;;;;;;5.99;80.24;95743.91;5112114;27;20196;-78
2020/12/16 07:24:24;;;;;;;11.67;10.47;;;;;;;5.78;80.93;95752.59;5123731;27;20219;-76
2020/12/16 07:26:53;;;;;;;13.13;9.50;;;;;;;5.78;81.17;95752.59;5114995;27;20206;-77
2020/12/16 07:29:28;;;;;;;9.97;8.97;;;;;;;5.85;80.92;95758.75;5117143;27;20204;-77
2020/12/16 07:31:57;;;;;;;9.63;8.63;;;;;;;5.89;80.91;95757.56;5126578;27;20684;-77
2020/12/16 07:34:23;;;;;;;10.13;9.13;;;;;;;5.94;80.63;95757.13;5132381;27;20573;-77
2020/12/16 07:36:53;;;;;;;9.73;8.80;;;;;;;6.01;80.13;95765.81;5117311;27;20211;-78
2020/12/16 07:39:19;;;;;;;10.37;9.37;;;;;;;5.84;80.27;95769.13;5126254;27;20192;-79
2020/12/16 07:41:46;;;;;;;12.43;10.37;;;;;;;5.75;81.13;95764.88;5124890;27;20279;-77
2020/12/16 07:44:13;;;;;;;11.43;10.23;;;;;;;5.60;81.93;95773.94;5118458;27;20215;-77
2020/12/16 07:46:38;;;;;;;11.23;10.00;;;;;;;5.51;83.22;95778.16;5128659;27;20214;-77
2020/12/16 07:49:04;;;;;;;12.13;10.90;;;;;;;5.61;83.02;95788.31;5132325;27;20217;-77
2020/12/16 07:51:30;;;;;;;14.67;10.23;;;;;;;5.71;82.08;95791.63;5123832;27;20196;-77
2020/12/16 07:53:56;;;;;;;13.03;10.43;;;;;;;5.71;82.16;95795.00;5115118;27;20195;-77
2020/12/16 07:56:22;;;;;;;12.50;10.77;;;;;;;5.66;82.41;95804.03;5126426;27;20219;-78
2020/12/16 07:58:48;;;;;;;13.13;9.97;;;;;;;5.76;82.19;95802.25;5123842;27;20194;-79
2020/12/16 08:01:16;;;;;;;11.37;10.17;;;;;;;5.83;81.80;95811.75;5110439;27;20202;-79
2020/12/16 08:03:44;;;;;;;11.23;10.03;;;;;;;5.90;81.93;95817.13;5121988;27;20284;-78
2020/12/16 08:06:10;;;;;;;10.90;9.77;;;;;;;5.99;81.13;95820.56;5107028;28;20195;-77
2020/12/16 08:08:46;;;;;;;11.00;9.87;;;;;;;6.04;80.27;95821.75;5112190;27;20264;-76
2020/12/16 08:11:14;;;;;;;11.60;10.40;;;;;;;6.09;80.28;95826.44;5112036;27;20282;-79
2020/12/16 08:13:39;;;;;;;11.57;10.37;;;;;;;6.03;80.54;95824.44;5120765;27;20252;-78
2020/12/16 08:16:07;;;;;;;12.90;10.27;;;;;;;6.11;80.58;95822.81;5106051;27;20196;-78
2020/12/16 08:18:34;;;;;;;11.40;10.20;;;;;;;6.17;80.50;95819.66;5113164;27;20195;-79
2020/12/16 08:21:00;;;;;;;15.53;13.50;;;;;;;6.18;80.08;95828.94;5128153;27;20655;-80
2020/12/16 08:23:26;;;;;;;21.60;17.77;;;;;;;6.53;96.35;95835.06;5121512;27;20587;-76
2020/12/16 08:25:52;;;;;;;12.00;10.37;;;;;;;6.97;95.93;95837.66;5111103;27;20242;-77
2020/12/16 08:28:26;;;;;;;10.60;9.60;;;;;;;7.03;78.54;95837.09;5127214;27;20207;-77
2020/12/16 08:30:53;;;;;;;10.73;9.67;;;;;;;6.94;77.56;95831.91;5100750;27;20194;-77
2020/12/16 08:33:19;;;;;;;10.17;9.17;;;;;;;6.91;77.43;95834.78;5125129;27;20704;-77
2020/12/16 08:35:53;;;;;;;10.80;9.53;;;;;;;6.88;76.99;95842.75;5114038;28;20629;-79
2020/12/16 08:38:25;;;;;;;13.37;10.50;;;;;;;6.86;77.18;95852.31;5122678;27;20223;-78
2020/12/16 08:40:52;;;;;;;10.40;9.30;;;;;;;6.83;77.71;95844.94;5111390;27;20281;-78
2020/12/16 08:43:24;;;;;;;11.83;10.63;;;;;;;6.82;77.69;95850.19;5122637;27;20219;-78
2020/12/16 08:45:58;;;;;;;11.30;10.07;;;;;;;6.84;77.79;95849.09;5114695;28;20199;-77
2020/12/16 08:48:24;;;;;;;15.00;11.00;;;;;;;6.83;77.83;95852.59;5128823;27;20253;-78
2020/12/16 08:51:00;;;;;;;12.83;10.87;;;;;;;6.91;77.35;95847.56;5108748;28;20209;-78
2020/12/16 08:53:26;;;;;;;12.03;10.80;;;;;;;6.93;77.62;95847.41;5102576;28;20199;-79
2020/12/16 08:55:52;;;;;;;12.03;10.83;;;;;;;7.07;77.39;95836.66;5115885;27;20186;-78
2020/12/16 08:58:18;;;;;;;12.50;11.23;;;;;;;7.32;76.65;95837.63;5111451;28;20272;-78
2020/12/16 09:00:43;;;;;;;11.57;10.37;;;;;;;7.54;75.78;95837.13;5125366;28;20205;-79
2020/12/16 09:03:13;;;;;;;19.03;16.60;;;;;;;7.68;75.25;95838.34;5117511;28;20290;-77
2020/12/16 09:05:40;;;;;;;22.67;18.10;;;;;;;7.84;73.87;95842.72;5130160;28;20202;-76
2020/12/16 09:08:10;;;;;;;13.47;11.57;;;;;;;7.85;72.88;95828.97;5116972;28;20272;-77
2020/12/16 09:10:37;;;;;;;13.87;11.17;;;;;;;8.00;72.92;95839.44;5114266;28;20210;-77
2020/12/16 09:13:11;;;;;;;12.50;10.00;;;;;;;8.06;71.92;95847.31;5125611;28;20326;-77
2020/12/16 09:15:37;;;;;;;11.53;10.43;;;;;;;8.04;72.08;95838.16;5119784;28;20745;-77
2020/12/16 09:18:03;;;;;;;10.90;9.80;;;;;;;8.03;71.66;95834.81;5124996;28;20207;-77
2020/12/16 09:20:30;;;;;;;10.43;9.43;;;;;;;7.97;71.94;95838.78;5114494;28;20199;-77
2020/12/16 09:22:56;;;;;;;10.63;9.23;;;;;;;8.00;71.53;95837.66;5116804;27;20301;-77
2020/12/16 09:25:23;;;;;;;10.60;9.50;;;;;;;7.94;71.98;95845.97;5122950;28;20245;-77
2020/12/16 09:27:51;;;;;;;11.07;9.07;;;;;;;7.83;71.93;95848.81;5121244;27;20339;-76
2020/12/16 09:30:24;;;;;;;11.30;10.20;;;;;;;7.90;72.42;95845.47;5117978;27;20245;-77
2020/12/16 09:32:50;;;;;;;10.53;9.53;;;;;;;8.08;72.68;95853.06;5104004;27;20184;-77
2020/12/16 09:35:16;;;;;;;12.27;10.97;;;;;;;8.26;71.38;95846.13;5120341;27;20210;-77
2020/12/16 09:37:42;;;;;;;11.93;10.53;;;;;;;8.38;71.17;95849.22;5123508;27;20226;-75
2020/12/16 09:40:10;;;;;;;10.70;9.70;;;;;;;8.41;70.95;95846.34;5129975;27;20607;-77
2020/12/16 09:42:38;;;;;;;10.07;9.07;;;;;;;8.46;71.27;95841.56;5132958;27;20195;-77
2020/12/16 09:45:11;;;;;;;10.20;9.20;;;;;;;8.60;70.54;95852.97;5114494;28;20666;-77
2020/12/16 09:47:42;;;;;;;11.47;9.80;;;;;;;8.60;70.24;95848.63;5120118;27;20276;-77
2020/12/16 09:50:08;;;;;;;11.17;10.03;;;;;;;8.59;70.62;95848.78;5120780;27;20199;-77
2020/12/16 09:52:36;;;;;;;12.50;10.17;;;;;;;8.58;70.88;95850.56;5122518;27;20252;-76
2020/12/16 09:55:14;;;;;;;11.47;10.30;;;;;;;8.57;70.27;95841.25;5125052;27;20199;-79
2020/12/16 09:57:42;;;;;;;13.63;10.67;;;;;;;8.34;71.05;95849.69;5124547;27;20256;-79
2020/12/16 10:00:08;;;;;;;11.33;10.13;;;;;;;8.31;72.31;95848.19;5126090;27;20203;-77
2020/12/16 10:02:34;;;;;;;11.57;10.37;;;;;;;8.39;71.53;95855.16;5130741;27;20199;-76
2020/12/16 10:05:00;;;;;;;11.50;10.20;;;;;;;8.44;71.27;95842.66;5119314;27;20198;-77
2020/12/16 10:07:30;;;;;;;13.80;11.30;;;;;;;8.35;71.64;95836.69;5125556;27;20284;-76
2020/12/16 10:09:56;;;;;;;12.07;10.83;;;;;;;8.31;72.30;95846.44;5114115;28;20199;-77
2020/12/16 10:12:22;;;;;;;12.27;11.07;;;;;;;8.33;72.60;95846.31;5113829;28;20606;-77
2020/12/16 10:14:50;;;;;;;12.07;10.87;;;;;;;8.36;72.91;95843.44;5114264;27;20189;-78
2020/12/16 10:17:20;;;;;;;14.10;11.37;;;;;;;8.30;72.54;95839.69;5121698;27;20297;-79
2020/12/16 10:19:46;;;;;;;12.43;10.87;;;;;;;8.28;73.45;95841.59;5122868;27;20199;-79
2020/12/16 10:22:12;;;;;;;14.63;11.30;;;;;;;8.23;73.52;95838.72;5119755;27;20230;-77
2020/12/16 10:24:38;;;;;;;14.17;11.40;;;;;;;8.21;73.98;95842.41;5123434;27;20226;-77
2020/12/16 10:27:04;;;;;;;14.57;11.90;;;;;;;8.13;74.26;95840.59;5128808;27;20212;-77
2020/12/16 10:29:30;;;;;;;13.07;11.30;;;;;;;8.17;74.21;95844.47;5119402;27;20191;-77
2020/12/16 10:31:56;;;;;;;12.37;11.17;;;;;;;8.11;74.59;95847.63;5117440;27;20288;-76
2020/12/16 10:34:22;;;;;;;12.57;11.27;;;;;;;8.12;74.39;95853.56;5113600;27;20199;-77
2020/12/16 10:36:52;;;;;;;13.10;11.70;;;;;;;8.12;74.37;95846.69;5130702;27;20293;-76
2020/12/16 10:39:20;;;;;;;12.43;11.17;;;;;;;8.14;74.63;95838.84;5120623;27;20198;-77
2020/12/16 10:41:49;;;;;;;13.70;12.30;;;;;;;8.15;73.85;95840.44;5115090;27;20203;-76
2020/12/16 10:44:15;;;;;;;12.93;11.63;;;;;;;8.18;73.95;95838.38;5134174;27;20758;-77
2020/12/16 10:46:44;;;;;;;12.70;11.40;;;;;;;8.15;74.10;95845.56;5128013;27;20210;-78
2020/12/16 10:49:11;;;;;;;12.43;11.13;;;;;;;8.13;74.32;95845.72;5133942;27;20581;-79
2020/12/16 10:51:37;;;;;;;15.90;13.40;;;;;;;8.10;74.40;95848.59;5129206;27;20202;-78
2020/12/16 10:54:03;;;;;;;15.13;13.10;;;;;;;7.95;75.38;95845.81;5112944;28;20203;-79
2020/12/16 10:56:29;;;;;;;13.87;12.20;;;;;;;7.78;76.00;95851.81;5113887;28;20224;-80
2020/12/16 10:58:55;;;;;;;13.17;11.77;;;;;;;7.84;76.01;95848.66;5122478;27;20198;-80
2020/12/16 11:01:21;;;;;;;14.20;12.20;;;;;;;7.88;75.78;95849.16;5134321;27;20202;-78
2020/12/16 11:03:47;;;;;;;14.37;12.87;;;;;;;7.92;75.81;95848.69;5133074;27;20697;-79
2020/12/16 11:06:15;;;;;;;14.77;12.80;;;;;;;7.87;75.92;95847.56;5134039;27;20194;-79
2020/12/16 11:08:42;;;;;;;13.43;11.93;;;;;;;7.91;75.81;95844.50;5134232;27;20198;-79
2020/12/16 11:11:08;;;;;;;14.57;11.87;;;;;;;7.97;75.52;95849.03;5133786;27;20575;-78
2020/12/16 11:13:34;;;;;;;13.43;12.03;;;;;;;8.02;75.26;95845.22;5130792;27;20218;-79
2020/12/16 11:16:01;;;;;;;12.60;11.30;;;;;;;8.04;75.21;95846.66;5112267;28;20245;-78
2020/12/16 11:18:27;;;;;;;12.37;11.17;;;;;;;8.00;75.04;95847.13;5113493;28;20223;-77
2020/12/16 11:20:53;;;;;;;12.70;10.60;;;;;;;7.98;75.10;95845.53;5112451;28;20211;-79
2020/12/16 11:23:19;;;;;;;11.83;10.17;;;;;;;8.01;74.72;95841.84;5110206;28;20223;-77
2020/12/16 11:25:44;;;;;;;10.53;9.53;;;;;;;7.94;74.87;95843.41;5123231;27;20202;-77
2020/12/16 11:28:10;;;;;;;10.27;9.27;;;;;;;7.87;74.68;95842.44;5126953;27;20702;-77
2020/12/16 11:30:36;;;;;;;11.53;10.43;;;;;;;7.86;75.02;95833.13;5115751;27;20200;-75